Time;durP1;ratioP1;P1;durP2;ratioP2;P2;SDS_P1;SDS_P2;PMS_P1;PMS_P2;Temp;Humidity;BMP_temperature;BMP_pressure;BME280_temperature;BME280_humidity;BME280_pressure;Samples;Min_cycle;Max_cycle;Signal;HPM_P1;HPM_P2
2023/07/01 00:01:42;;;;;;;2.67;0.93;;;17.20;99.90;;;;;;5092162;28;20048;-64
2023/07/01 00:04:07;;;;;;;0.82;0.57;;;17.20;99.90;;;;;;5092346;28;20105;-64
2023/07/01 00:06:33;;;;;;;1.02;0.60;;;17.20;99.90;;;;;;5073660;28;20484;-64
2023/07/01 00:08:59;;;;;;;2.20;1.08;;;17.10;99.90;;;;;;5091218;28;20047;-65
2023/07/01 00:11:25;;;;;;;4.43;1.23;;;17.10;99.90;;;;;;5091088;28;20047;-65
2023/07/01 00:13:51;;;;;;;1.90;0.80;;;17.10;99.90;;;;;;5090418;28;20040;-65
2023/07/01 00:16:17;;;;;;;1.77;1.15;;;17.10;99.90;;;;;;5091063;28;20043;-65
2023/07/01 00:18:45;;;;;;;1.52;0.90;;;17.10;99.90;;;;;;5090665;28;20395;-65
2023/07/01 00:21:11;;;;;;;0.77;0.55;;;17.00;99.90;;;;;;5090858;28;20149;-65
2023/07/01 00:23:37;;;;;;;1.67;0.98;;;17.00;99.90;;;;;;5090811;28;20040;-63
2023/07/01 00:26:03;;;;;;;2.30;0.70;;;17.10;99.90;;;;;;5091465;28;20089;-66
2023/07/01 00:28:29;;;;;;;1.02;0.60;;;17.00;99.90;;;;;;5090788;28;20044;-66
2023/07/01 00:30:54;;;;;;;1.85;0.77;;;17.10;99.90;;;;;;5074199;28;20047;-66
2023/07/01 00:33:20;;;;;;;1.90;0.82;;;17.00;99.90;;;;;;5090065;28;20432;-66
2023/07/01 00:35:46;;;;;;;1.10;0.80;;;17.00;99.90;;;;;;5090629;28;20039;-65
2023/07/01 00:38:12;;;;;;;1.70;0.40;;;17.00;99.90;;;;;;5072747;28;20040;-64
2023/07/01 00:40:38;;;;;;;1.60;0.80;;;17.10;99.90;;;;;;5070827;28;20036;-65
2023/07/01 00:43:04;;;;;;;2.75;1.10;;;17.10;99.90;;;;;;5070260;28;20035;-66
2023/07/01 00:45:29;;;;;;;3.45;0.82;;;17.10;99.90;;;;;;5070160;28;20048;-66
2023/07/01 00:47:55;;;;;;;3.15;1.05;;;17.10;99.90;;;;;;5071007;28;20128;-66
2023/07/01 00:50:21;;;;;;;1.50;0.65;;;17.10;99.90;;;;;;5071328;28;20493;-65
2023/07/01 00:52:47;;;;;;;1.67;0.73;;;17.20;99.90;;;;;;5053072;28;20639;-65
2023/07/01 00:55:13;;;;;;;1.17;0.82;;;17.20;99.90;;;;;;5069732;28;20098;-65
2023/07/01 00:57:39;;;;;;;3.03;1.20;;;17.20;99.90;;;;;;5071363;28;20469;-65
2023/07/01 01:00:11;;;;;;;4.13;1.10;;;17.20;99.90;;;;;;5082830;28;20068;-65
2023/07/01 01:03:21;;;;;;;1.98;0.63;;;17.20;99.90;;;;;;5072667;28;20044;-65
2023/07/01 01:06:07;;;;;;;1.63;0.75;;;17.30;99.90;;;;;;5089719;28;20040;-65
2023/07/01 01:08:44;;;;;;;2.03;1.08;;;17.30;99.90;;;;;;5090718;28;20040;-66
2023/07/01 01:11:12;;;;;;;1.05;0.60;;;17.20;99.90;;;;;;5091236;28;20082;-65
2023/07/01 01:13:38;;;;;;;1.00;0.70;;;17.20;99.90;;;;;;5091070;28;20035;-66
2023/07/01 01:16:05;;;;;;;1.58;0.93;;;17.20;99.90;;;;;;5089571;28;20040;-66
2023/07/01 01:18:32;;;;;;;1.30;0.63;;;17.20;99.90;;;;;;5089796;28;20683;-64
2023/07/01 01:20:59;;;;;;;2.33;0.45;;;17.10;99.90;;;;;;5089812;28;20133;-66
2023/07/01 01:23:27;;;;;;;1.90;0.85;;;17.10;99.90;;;;;;5089113;28;20040;-66
2023/07/01 01:26:09;;;;;;;3.15;0.75;;;17.10;99.90;;;;;;5090671;28;20047;-66
2023/07/01 01:28:35;;;;;;;1.38;0.60;;;17.10;99.90;;;;;;5089398;28;20388;-65
2023/07/01 01:31:02;;;;;;;1.42;0.90;;;17.10;99.90;;;;;;5091093;28;20097;-66
2023/07/01 01:33:28;;;;;;;3.90;0.70;;;17.10;99.90;;;;;;5081430;28;20033;-65
2023/07/01 01:36:08;;;;;;;1.70;0.65;;;17.10;99.90;;;;;;5069980;28;20393;-65
2023/07/01 01:38:36;;;;;;;2.67;1.25;;;17.10;99.90;;;;;;5069124;28;20120;-65
2023/07/01 01:41:09;;;;;;;1.50;1.00;;;17.10;99.90;;;;;;5069268;28;20105;-65
2023/07/01 01:43:46;;;;;;;0.88;0.52;;;17.10;99.90;;;;;;5068598;28;20110;-66
2023/07/01 01:46:15;;;;;;;1.27;0.73;;;17.10;99.90;;;;;;5069389;28;20374;-65
2023/07/01 01:48:41;;;;;;;1.35;0.68;;;17.10;99.90;;;;;;5069229;28;20072;-66
2023/07/01 01:51:08;;;;;;;1.33;0.77;;;17.10;99.90;;;;;;5069723;28;20041;-65
2023/07/01 01:53:38;;;;;;;1.45;0.65;;;17.10;99.90;;;;;;5068812;28;20087;-66
2023/07/01 01:56:04;;;;;;;;;;;17.00;99.90;;;;;;5069420;28;20040;-65
2023/07/01 01:58:31;;;;;;;6.22;1.38;;;17.00;99.90;;;;;;5068221;28;19930;-65
2023/07/01 02:00:57;;;;;;;4.50;1.20;;;17.00;99.90;;;;;;5090432;28;20122;-66
2023/07/01 02:03:23;;;;;;;2.28;1.10;;;17.00;99.90;;;;;;5089247;28;20044;-66
2023/07/01 02:05:49;;;;;;;2.10;1.17;;;17.00;99.90;;;;;;5089861;28;20097;-66
2023/07/01 02:08:15;;;;;;;1.92;0.93;;;17.00;99.90;;;;;;5088941;28;20036;-65
2023/07/01 02:10:41;;;;;;;2.53;1.13;;;17.00;99.90;;;;;;5089770;28;20132;-67
2023/07/01 02:13:07;;;;;;;1.23;0.73;;;17.00;99.90;;;;;;5089142;28;20071;-65
2023/07/01 02:15:32;;;;;;;3.08;1.08;;;17.00;99.90;;;;;;5072392;28;20756;-65
2023/07/01 02:17:58;;;;;;;2.85;1.20;;;17.00;99.90;;;;;;5071676;28;20044;-65
2023/07/01 02:20:24;;;;;;;1.48;1.08;;;17.00;99.90;;;;;;5090463;28;20036;-65
2023/07/01 02:22:50;;;;;;;2.17;1.17;;;17.00;99.90;;;;;;5088935;28;20454;-65
2023/07/01 02:25:16;;;;;;;1.20;0.80;;;17.00;99.90;;;;;;5089161;28;20032;-66
2023/07/01 02:27:42;;;;;;;2.17;1.30;;;16.90;99.90;;;;;;5076185;28;20082;-66
2023/07/01 02:30:08;;;;;;;2.70;1.60;;;16.90;99.90;;;;;;5081680;28;20036;-65
2023/07/01 02:32:34;;;;;;;2.50;1.15;;;16.90;99.90;;;;;;5073753;28;20063;-65
2023/07/01 02:35:00;;;;;;;8.73;2.20;;;16.90;99.90;;;;;;5054653;28;20037;-65
2023/07/01 02:37:25;;;;;;;3.33;1.60;;;16.80;99.90;;;;;;5054000;28;20037;-67
2023/07/01 02:39:51;;;;;;;2.03;1.10;;;16.80;99.90;;;;;;5052088;28;20059;-67
2023/07/01 02:42:21;;;;;;;2.47;1.20;;;16.80;99.90;;;;;;5052596;28;20155;-66
2023/07/01 02:44:48;;;;;;;4.10;1.42;;;16.80;99.90;;;;;;5052566;28;20037;-66
2023/07/01 02:47:18;;;;;;;2.65;1.63;;;16.80;99.90;;;;;;5035570;28;20044;-67
2023/07/01 02:49:44;;;;;;;2.15;1.55;;;16.80;99.90;;;;;;5052534;28;20151;-66
2023/07/01 02:52:11;;;;;;;3.80;1.20;;;16.80;99.90;;;;;;5052567;28;20127;-66
2023/07/01 02:54:41;;;;;;;3.55;1.48;;;16.80;99.90;;;;;;5052752;28;20060;-66
2023/07/01 02:57:08;;;;;;;2.30;1.10;;;16.70;99.90;;;;;;5052407;28;20044;-66
2023/07/01 02:59:34;;;;;;;3.05;1.33;;;16.80;99.90;;;;;;5068818;28;20043;-66
2023/07/01 03:02:00;;;;;;;1.55;1.13;;;16.70;99.90;;;;;;5092449;28;20036;-66
2023/07/01 03:04:26;;;;;;;3.25;1.38;;;16.70;99.90;;;;;;5092442;28;20122;-66
2023/07/01 03:06:52;;;;;;;6.03;2.15;;;16.70;99.90;;;;;;5075019;28;20040;-65
2023/07/01 03:09:18;;;;;;;3.42;1.70;;;16.70;99.90;;;;;;5092475;28;20048;-66
2023/07/01 03:11:44;;;;;;;2.88;1.30;;;16.70;99.90;;;;;;5093602;28;20039;-67
2023/07/01 03:14:12;;;;;;;2.60;1.55;;;16.70;99.90;;;;;;5091699;28;20597;-67
2023/07/01 03:16:41;;;;;;;4.38;1.92;;;16.70;99.90;;;;;;5092485;28;20046;-66
2023/07/01 03:19:07;;;;;;;8.00;2.03;;;16.70;99.90;;;;;;5092367;28;20036;-66
2023/07/01 03:21:34;;;;;;;4.07;1.40;;;16.70;99.90;;;;;;5092652;28;20040;-65
2023/07/01 03:24:00;;;;;;;2.15;1.50;;;16.70;99.90;;;;;;5092204;28;20123;-66
2023/07/01 03:26:27;;;;;;;1.65;1.02;;;16.70;99.90;;;;;;5078916;28;20718;-65
2023/07/01 03:28:53;;;;;;;3.58;1.80;;;16.60;99.90;;;;;;5072612;28;20044;-65
2023/07/01 03:31:23;;;;;;;3.47;1.63;;;16.70;99.90;;;;;;5035180;28;20037;-66
2023/07/01 03:33:49;;;;;;;5.53;1.75;;;16.60;99.90;;;;;;5051625;28;20584;-66
2023/07/01 03:36:16;;;;;;;3.10;1.45;;;16.70;99.90;;;;;;5052114;28;20082;-65
2023/07/01 03:38:42;;;;;;;4.55;1.45;;;16.60;99.90;;;;;;5051845;28;20462;-66
2023/07/01 03:41:08;;;;;;;3.60;1.58;;;16.60;99.90;;;;;;5051545;28;20128;-65
2023/07/01 03:43:34;;;;;;;7.55;1.75;;;16.60;99.90;;;;;;5051095;28;20481;-65
2023/07/01 03:46:00;;;;;;;5.65;1.80;;;16.60;99.90;;;;;;5051568;28;20044;-65
2023/07/01 03:48:26;;;;;;;2.05;1.40;;;16.50;99.90;;;;;;5051738;28;20056;-66
2023/07/01 03:50:52;;;;;;;2.33;1.77;;;16.50;99.90;;;;;;5052724;28;20481;-65
2023/07/01 03:53:18;;;;;;;2.58;1.23;;;16.50;99.90;;;;;;5067787;28;20449;-65
2023/07/01 03:55:44;;;;;;;2.22;1.23;;;16.40;99.90;;;;;;5051924;28;20045;-65
2023/07/01 03:58:09;;;;;;;3.03;1.70;;;16.40;99.90;;;;;;5051154;28;20037;-65
2023/07/01 04:00:36;;;;;;;9.68;1.73;;;16.40;99.90;;;;;;5085428;28;20032;-65
2023/07/01 04:03:08;;;;;;;2.35;1.15;;;16.30;99.90;;;;;;5090889;28;20506;-65
2023/07/01 04:05:35;;;;;;;2.53;1.80;;;16.30;99.90;;;;;;5091531;28;20036;-65
2023/07/01 04:08:01;;;;;;;2.25;1.23;;;16.30;99.90;;;;;;5092548;28;20051;-65
2023/07/01 04:10:28;;;;;;;2.38;1.40;;;16.20;99.90;;;;;;5090531;28;20048;-65
2023/07/01 04:12:54;;;;;;;2.45;1.30;;;16.20;99.90;;;;;;5092526;28;20032;-65
2023/07/01 04:15:19;;;;;;;3.97;1.65;;;16.20;99.90;;;;;;5091399;28;20127;-64
2023/07/01 04:17:48;;;;;;;3.92;2.78;;;16.20;99.90;;;;;;5090665;28;20454;-64
2023/07/01 04:20:15;;;;;;;3.28;2.08;;;16.20;99.90;;;;;;5074437;28;20039;-65
2023/07/01 04:22:41;;;;;;;2.80;1.42;;;16.20;99.90;;;;;;5077438;28;20123;-65
2023/07/01 04:25:08;;;;;;;3.55;1.85;;;16.20;99.90;;;;;;5070462;28;20373;-65
2023/07/01 04:27:35;;;;;;;4.88;1.95;;;16.20;99.90;;;;;;5051799;28;20041;-65
2023/07/01 04:30:02;;;;;;;3.00;1.40;;;16.10;99.90;;;;;;5050909;28;20045;-66
2023/07/01 04:32:30;;;;;;;2.45;1.42;;;16.10;99.90;;;;;;5051201;28;20091;-64
2023/07/01 04:34:56;;;;;;;2.00;1.55;;;16.10;99.90;;;;;;5050841;28;20044;-65
2023/07/01 04:37:22;;;;;;;2.53;1.50;;;16.10;99.90;;;;;;5051733;28;20118;-66
2023/07/01 04:39:48;;;;;;;3.22;1.88;;;16.20;99.90;;;;;;5050103;28;20052;-66
2023/07/01 04:42:14;;;;;;;2.22;1.42;;;16.30;99.90;;;;;;5050767;28;20144;-64
2023/07/01 04:44:39;;;;;;;5.47;1.63;;;16.30;99.90;;;;;;5033206;28;20051;-66
2023/07/01 04:47:05;;;;;;;3.47;1.40;;;16.40;99.90;;;;;;5033996;28;20136;-65
2023/07/01 04:49:31;;;;;;;5.55;1.80;;;16.40;99.90;;;;;;5051143;28;20397;-65
2023/07/01 04:51:57;;;;;;;3.28;2.30;;;16.50;99.90;;;;;;5050709;28;20056;-64
2023/07/01 04:54:23;;;;;;;2.65;1.27;;;16.50;99.90;;;;;;5049773;28;20053;-63
2023/07/01 04:56:49;;;;;;;2.55;1.55;;;16.60;99.90;;;;;;5050086;28;20382;-64
2023/07/01 04:59:15;;;;;;;3.45;1.55;;;16.60;99.90;;;;;;5061566;28;20089;-64
2023/07/01 05:01:40;;;;;;;4.05;1.75;;;16.60;99.90;;;;;;5073198;28;20036;-64
2023/07/01 05:04:06;;;;;;;3.10;1.70;;;16.60;99.90;;;;;;5077898;28;20036;-64
2023/07/01 05:06:32;;;;;;;4.32;1.75;;;16.60;99.90;;;;;;5070512;28;20048;-64
2023/07/01 05:08:58;;;;;;;4.22;1.63;;;16.60;99.90;;;;;;5071264;28;20044;-64
2023/07/01 05:11:24;;;;;;;5.63;1.90;;;16.60;99.90;;;;;;5069757;28;20044;-64
2023/07/01 05:13:50;;;;;;;3.92;2.10;;;16.60;99.90;;;;;;5052477;28;20047;-64
2023/07/01 05:16:16;;;;;;;3.45;1.70;;;16.60;99.90;;;;;;5071048;28;20036;-65
2023/07/01 05:18:42;;;;;;;3.30;1.73;;;16.50;99.90;;;;;;5069890;28;20079;-64
2023/07/01 05:21:07;;;;;;;2.55;1.80;;;16.50;99.90;;;;;;5069083;28;20072;-65
2023/07/01 05:23:33;;;;;;;2.55;1.42;;;16.50;99.90;;;;;;5052863;28;20042;-65
2023/07/01 05:25:59;;;;;;;4.15;1.75;;;16.50;99.90;;;;;;5052938;28;20119;-64
2023/07/01 05:28:25;;;;;;;2.58;2.20;;;16.50;99.90;;;;;;5069956;28;20127;-64
2023/07/01 05:30:51;;;;;;;4.10;2.13;;;16.50;99.90;;;;;;5070935;28;20090;-64
2023/07/01 05:33:17;;;;;;;3.50;2.35;;;16.50;99.90;;;;;;5069592;28;20170;-65
2023/07/01 05:35:42;;;;;;;3.67;2.08;;;16.50;99.90;;;;;;5051986;28;20047;-64
2023/07/01 05:38:10;;;;;;;5.28;1.90;;;16.50;99.90;;;;;;5070250;28;20036;-64
2023/07/01 05:40:36;;;;;;;3.88;1.88;;;16.50;99.90;;;;;;5068731;28;20044;-65
2023/07/01 05:43:03;;;;;;;3.42;1.75;;;16.60;99.90;;;;;;5070349;28;20056;-65
2023/07/01 05:45:28;;;;;;;3.47;2.33;;;16.60;99.90;;;;;;5068941;28;20041;-65
2023/07/01 05:47:54;;;;;;;3.05;1.98;;;16.50;99.90;;;;;;5068798;28;20036;-64
2023/07/01 05:50:20;;;;;;;3.05;1.95;;;16.60;99.90;;;;;;5069080;28;20389;-65
2023/07/01 05:52:46;;;;;;;11.95;2.38;;;16.50;99.90;;;;;;5068518;28;20053;-64
2023/07/01 05:55:12;;;;;;;2.05;1.42;;;16.50;99.90;;;;;;5068643;28;20109;-64
2023/07/01 05:57:38;;;;;;;4.55;2.28;;;16.50;99.90;;;;;;5068488;28;20505;-64
2023/07/01 06:00:04;;;;;;;2.92;1.88;;;16.50;99.90;;;;;;5081481;28;20115;-64
2023/07/01 06:02:30;;;;;;;4.38;2.20;;;16.40;99.90;;;;;;5088885;28;20173;-63
2023/07/01 06:04:56;;;;;;;3.63;2.22;;;16.30;99.90;;;;;;5072412;28;20046;-64
2023/07/01 06:07:23;;;;;;;2.17;1.50;;;16.30;99.90;;;;;;5088554;28;20032;-63
2023/07/01 06:09:49;;;;;;;3.33;1.90;;;16.30;99.90;;;;;;5088711;28;20502;-63
2023/07/01 06:12:16;;;;;;;4.55;2.60;;;16.30;99.90;;;;;;5068482;28;20525;-64
2023/07/01 06:14:42;;;;;;;4.32;1.80;;;16.30;99.90;;;;;;5068742;28;20044;-63
2023/07/01 06:17:08;;;;;;;4.00;2.03;;;16.30;99.90;;;;;;5069455;28;20072;-64
2023/07/01 06:19:34;;;;;;;2.72;1.73;;;16.30;99.90;;;;;;5068913;28;20521;-64
2023/07/01 06:22:00;;;;;;;2.72;1.55;;;16.30;99.90;;;;;;5068823;28;20059;-65
2023/07/01 06:24:26;;;;;;;2.60;1.40;;;16.30;99.90;;;;;;5068242;28;20048;-65
2023/07/01 06:26:51;;;;;;;2.47;1.40;;;16.30;99.90;;;;;;5069933;28;20046;-64
2023/07/01 06:29:17;;;;;;;2.53;1.45;;;16.40;99.90;;;;;;5069924;28;20128;-65
2023/07/01 06:31:43;;;;;;;2.00;1.40;;;16.40;99.90;;;;;;5068136;28;20128;-64
2023/07/01 06:34:17;;;;;;;2.45;1.25;;;16.40;99.90;;;;;;5068596;28;20119;-64
2023/07/01 06:36:43;;;;;;;2.70;1.58;;;16.40;99.90;;;;;;5068211;28;20051;-65
2023/07/01 06:39:10;;;;;;;2.78;1.67;;;16.40;99.90;;;;;;5068990;28;20465;-64
2023/07/01 06:41:36;;;;;;;2.70;1.73;;;16.40;99.90;;;;;;5068674;28;20044;-64
2023/07/01 06:44:02;;;;;;;2.92;1.38;;;16.50;99.90;;;;;;5067987;28;20047;-64
2023/07/01 06:46:28;;;;;;;3.63;1.85;;;16.50;99.90;;;;;;5068740;28;20040;-64
2023/07/01 06:48:54;;;;;;;2.63;1.55;;;16.50;99.90;;;;;;5069927;28;20061;-64
2023/07/01 06:51:20;;;;;;;2.50;1.85;;;16.60;99.90;;;;;;5061422;28;20036;-64
2023/07/01 06:53:46;;;;;;;3.72;1.65;;;16.60;99.90;;;;;;5069571;28;20566;-65
2023/07/01 06:56:12;;;;;;;5.18;2.08;;;16.60;99.90;;;;;;5069403;28;20059;-65
2023/07/01 06:58:40;;;;;;;3.00;1.45;;;16.60;99.90;;;;;;5069744;28;20124;-64
2023/07/01 07:01:06;;;;;;;2.35;1.60;;;16.60;99.90;;;;;;5088493;28;20040;-65
2023/07/01 07:03:33;;;;;;;2.25;1.38;;;16.60;99.90;;;;;;5088293;28;20051;-66
2023/07/01 07:05:59;;;;;;;3.10;1.90;;;16.70;99.90;;;;;;5088056;28;20113;-64
2023/07/01 07:08:25;;;;;;;3.63;1.40;;;16.70;99.90;;;;;;5052023;28;20478;-65
2023/07/01 07:10:51;;;;;;;2.78;1.33;;;16.70;99.90;;;;;;5054963;28;20110;-65
2023/07/01 07:13:17;;;;;;;2.90;1.55;;;16.80;99.90;;;;;;5071386;28;20097;-65
2023/07/01 07:15:44;;;;;;;2.55;1.58;;;16.80;99.90;;;;;;5073004;28;20086;-64
2023/07/01 07:18:10;;;;;;;1.98;1.05;;;16.80;99.90;;;;;;5071475;28;20044;-65
2023/07/01 07:20:38;;;;;;;2.42;1.35;;;16.80;99.90;;;;;;5053535;28;20040;-64
2023/07/01 07:23:06;;;;;;;3.45;1.65;;;16.90;99.90;;;;;;5067829;28;20124;-65
2023/07/01 07:25:35;;;;;;;3.80;1.48;;;16.90;99.90;;;;;;5068834;28;20040;-65
2023/07/01 07:28:06;;;;;;;2.55;1.55;;;16.90;99.90;;;;;;5066680;28;20049;-64
2023/07/01 07:30:31;;;;;;;1.92;1.10;;;17.00;99.90;;;;;;5050650;28;20111;-65
2023/07/01 07:33:01;;;;;;;6.25;2.03;;;16.90;99.90;;;;;;5050212;28;20040;-64
2023/07/01 07:35:28;;;;;;;3.33;1.50;;;17.00;99.90;;;;;;5050629;28;20370;-65
2023/07/01 07:37:54;;;;;;;2.67;1.55;;;17.00;99.90;;;;;;5051771;28;20040;-65
2023/07/01 07:40:20;;;;;;;2.65;1.40;;;17.00;99.90;;;;;;5050058;28;20098;-65
2023/07/01 07:42:46;;;;;;;4.88;1.73;;;17.00;99.90;;;;;;5055526;28;20072;-66
2023/07/01 07:45:13;;;;;;;2.90;1.60;;;17.00;99.90;;;;;;5070502;28;20059;-66
2023/07/01 07:47:39;;;;;;;2.97;1.40;;;17.10;99.90;;;;;;5049880;28;20045;-66
2023/07/01 07:50:05;;;;;;;2.00;1.15;;;17.10;99.90;;;;;;5050400;28;20051;-65
2023/07/01 07:52:31;;;;;;;2.70;1.08;;;17.20;99.90;;;;;;5050260;28;20397;-65
2023/07/01 07:54:57;;;;;;;2.17;1.08;;;17.10;99.90;;;;;;5050633;28;20060;-65
2023/07/01 07:57:23;;;;;;;2.72;1.20;;;17.10;99.90;;;;;;5051263;28;20436;-66
2023/07/01 07:59:49;;;;;;;2.90;1.25;;;17.20;99.90;;;;;;5071758;28;20036;-66
2023/07/01 08:02:14;;;;;;;3.05;1.10;;;17.20;99.90;;;;;;5072732;28;20401;-65
2023/07/01 08:04:40;;;;;;;2.65;1.17;;;17.20;99.90;;;;;;5090321;28;20040;-66
2023/07/01 08:07:07;;;;;;;2.05;0.88;;;17.20;99.90;;;;;;5082990;28;20075;-66
2023/07/01 08:09:34;;;;;;;2.65;1.30;;;17.30;99.90;;;;;;5068731;28;20052;-65
2023/07/01 08:12:00;;;;;;;2.13;0.90;;;17.20;99.90;;;;;;5070027;28;20040;-65
2023/07/01 08:14:27;;;;;;;1.85;1.02;;;17.20;99.90;;;;;;5071016;28;20037;-65
2023/07/01 08:16:58;;;;;;;2.33;1.48;;;17.30;99.90;;;;;;5069810;28;20515;-66
2023/07/01 08:19:24;;;;;;;2.92;1.20;;;17.30;99.90;;;;;;5069798;28;20033;-66
2023/07/01 08:21:50;;;;;;;2.80;0.98;;;17.20;99.90;;;;;;5069429;28;20458;-66
2023/07/01 08:24:16;;;;;;;1.60;1.17;;;17.30;99.90;;;;;;5070297;28;20044;-65
2023/07/01 08:26:42;;;;;;;2.40;0.98;;;17.30;99.90;;;;;;5070759;28;20528;-66
2023/07/01 08:29:09;;;;;;;1.30;0.75;;;17.30;99.90;;;;;;5070277;28;20512;-67
2023/07/01 08:31:35;;;;;;;2.55;0.88;;;17.40;99.90;;;;;;5070731;28;20123;-66
2023/07/01 08:34:02;;;;;;;2.97;1.35;;;17.50;99.90;;;;;;5069468;28;20045;-66
2023/07/01 08:36:28;;;;;;;2.08;0.90;;;17.50;99.90;;;;;;5070202;28;20039;-65
2023/07/01 08:38:54;;;;;;;2.33;1.40;;;17.50;99.90;;;;;;5069539;28;20041;-66
2023/07/01 08:41:23;;;;;;;2.33;1.27;;;17.50;99.90;;;;;;5069357;28;20071;-66
2023/07/01 08:43:52;;;;;;;2.63;1.15;;;17.50;99.90;;;;;;5069032;28;20036;-66
2023/07/01 08:46:19;;;;;;;4.07;1.30;;;17.50;99.90;;;;;;5069395;28;20048;-66
2023/07/01 08:48:47;;;;;;;2.70;1.23;;;17.50;99.90;;;;;;5052796;28;20040;-66
2023/07/01 08:51:28;;;;;;;6.78;1.00;;;17.50;99.90;;;;;;5052679;28;20095;-66
2023/07/01 08:53:58;;;;;;;1.92;0.82;;;17.50;99.90;;;;;;5068837;28;20049;-65
2023/07/01 08:56:24;;;;;;;2.72;1.10;;;17.60;99.90;;;;;;5068887;28;20045;-66
2023/07/01 08:58:50;;;;;;;1.80;0.80;;;17.60;99.90;;;;;;5070999;28;20044;-66
2023/07/01 09:01:17;;;;;;;1.65;0.70;;;17.60;99.90;;;;;;5089159;28;20036;-66
2023/07/01 09:03:47;;;;;;;2.05;0.82;;;17.60;99.90;;;;;;5076879;28;20044;-66
2023/07/01 09:06:13;;;;;;;1.30;0.70;;;17.70;99.90;;;;;;5069964;28;20055;-66
2023/07/01 09:08:39;;;;;;;2.58;1.08;;;17.80;99.90;;;;;;5069037;28;20043;-67
2023/07/01 09:11:16;;;;;;;0.90;0.60;;;17.80;99.90;;;;;;5069589;28;20041;-66
2023/07/01 09:13:43;;;;;;;1.98;0.73;;;17.80;99.90;;;;;;5070057;28;20080;-67
2023/07/01 09:16:09;;;;;;;1.80;0.88;;;17.90;99.90;;;;;;5051454;28;20032;-67
2023/07/01 09:18:35;;;;;;;2.45;1.20;;;17.90;99.90;;;;;;5068756;28;20059;-67
2023/07/01 09:21:01;;;;;;;2.40;0.90;;;17.90;99.90;;;;;;5068533;28;20045;-67
2023/07/01 09:23:35;;;;;;;2.33;0.90;;;17.90;99.90;;;;;;5068425;28;20041;-66
2023/07/01 09:26:19;;;;;;;1.48;0.73;;;17.90;99.90;;;;;;5069066;28;20070;-66
2023/07/01 09:28:47;;;;;;;0.88;0.57;;;17.90;99.90;;;;;;5069660;28;20397;-66
2023/07/01 09:31:15;;;;;;;1.45;0.63;;;17.90;99.90;;;;;;5069628;28;20433;-65
2023/07/01 09:34:05;;;;;;;2.42;1.02;;;17.90;99.90;;;;;;5051184;28;20466;-65
2023/07/01 09:36:32;;;;;;;1.92;0.65;;;17.90;99.90;;;;;;5051309;28;20436;-65
2023/07/01 09:38:59;;;;;;;1.70;0.68;;;17.90;99.90;;;;;;5067503;28;20071;-65
2023/07/01 09:41:26;;;;;;;0.95;0.35;;;17.90;99.90;;;;;;5068416;28;20072;-65
2023/07/01 09:43:54;;;;;;;1.80;0.65;;;17.90;99.90;;;;;;5068459;28;20041;-65
2023/07/01 09:46:22;;;;;;;0.98;0.60;;;17.90;99.90;;;;;;5068958;28;20488;-66
2023/07/01 09:48:56;;;;;;;1.27;0.55;;;18.00;99.90;;;;;;5068328;28;20417;-66
2023/07/01 09:51:24;;;;;;;0.75;0.50;;;18.00;99.90;;;;;;5069443;28;20048;-66
2023/07/01 09:53:51;;;;;;;0.47;0.20;;;18.00;99.90;;;;;;5050618;28;20132;-67
2023/07/01 09:56:18;;;;;;;0.35;0.22;;;18.00;99.90;;;;;;5067979;28;20040;-66
2023/07/01 09:58:51;;;;;;;1.17;0.55;;;18.00;99.90;;;;;;5052960;28;20041;-66
2023/07/01 10:01:19;;;;;;;0.47;0.10;;;18.00;99.90;;;;;;5067072;28;20048;-67
2023/07/01 10:03:45;;;;;;;0.90;0.50;;;18.00;99.90;;;;;;5051681;28;20170;-67
2023/07/01 10:06:13;;;;;;;0.10;0.10;;;18.00;99.90;;;;;;5051447;28;20089;-66
2023/07/01 10:08:43;;;;;;;0.40;0.20;;;18.00;99.90;;;;;;5050721;28;20489;-66
2023/07/01 10:11:10;;;;;;;0.30;0.20;;;18.00;99.90;;;;;;5069458;28;20044;-66
2023/07/01 10:13:47;;;;;;;1.17;0.30;;;18.00;99.90;;;;;;5067366;28;20040;-66
2023/07/01 10:16:13;;;;;;;2.97;0.20;;;17.90;99.90;;;;;;5051041;28;20508;-66
2023/07/01 10:18:39;;;;;;;0.30;0.20;;;18.00;99.90;;;;;;5059372;28;20124;-66
2023/07/01 10:21:30;;;;;;;0.20;0.20;;;18.00;99.90;;;;;;5047315;28;20072;-66
2023/07/01 10:24:00;;;;;;;0.17;0.13;;;18.10;99.90;;;;;;5047844;28;20036;-66
2023/07/01 10:26:32;;;;;;;0.93;0.50;;;18.20;99.90;;;;;;5049287;28;20041;-67
2023/07/01 10:28:58;;;;;;;0.95;0.40;;;18.30;99.90;;;;;;5030464;28;20041;-67
2023/07/01 10:31:24;;;;;;;1.55;0.43;;;18.40;99.90;;;;;;5047805;28;20049;-67
2023/07/01 10:33:51;;;;;;;1.00;0.52;;;18.50;99.90;;;;;;5049122;28;20063;-67
2023/07/01 10:36:19;;;;;;;0.80;0.40;;;18.50;99.90;;;;;;5047213;28;20049;-67
2023/07/01 10:38:45;;;;;;;0.98;0.40;;;18.60;99.90;;;;;;5047785;28;20040;-67
2023/07/01 10:41:11;;;;;;;0.80;0.20;;;18.60;99.90;;;;;;5047582;28;20119;-67
2023/07/01 10:43:43;;;;;;;1.65;0.68;;;18.60;99.90;;;;;;5030510;28;20136;-66
2023/07/01 10:46:28;;;;;;;1.58;0.63;;;18.60;99.90;;;;;;5031333;28;20341;-66
2023/07/01 10:49:03;;;;;;;0.65;0.38;;;18.70;99.90;;;;;;5050935;28;20482;-66
2023/07/01 10:51:44;;;;;;;0.65;0.40;;;18.80;99.90;;;;;;5052711;28;20679;-67
2023/07/01 10:54:10;;;;;;;0.95;0.40;;;18.90;99.90;;;;;;5051148;28;20051;-66
2023/07/01 10:57:28;;;;;;;0.40;0.20;;;18.80;99.90;;;;;;5062347;28;20041;-66
2023/07/01 11:00:32;;;;;;;0.73;0.32;;;18.80;99.90;;;;;;5040499;28;20094;-66
2023/07/01 11:02:58;;;;;;;0.80;0.40;;;18.70;99.90;;;;;;5033775;28;20086;-67
2023/07/01 11:05:28;;;;;;;0.82;0.47;;;18.60;99.90;;;;;;5052740;28;20041;-67
2023/07/01 11:08:05;;;;;;;3.55;0.82;;;18.70;99.90;;;;;;5051194;28;20049;-67
2023/07/01 11:10:32;;;;;;;4.18;1.00;;;18.90;99.90;;;;;;5050750;28;20044;-67
2023/07/01 11:13:03;;;;;;;0.93;0.52;;;19.20;99.90;;;;;;5051276;28;20079;-67
2023/07/01 11:15:29;;;;;;;2.15;0.90;;;19.60;99.90;;;;;;5052090;28;20515;-68
2023/07/01 11:17:57;;;;;;;2.08;1.13;;;19.80;99.90;;;;;;5050120;28;20140;-67
2023/07/01 11:20:23;;;;;;;2.88;1.08;;;20.00;99.90;;;;;;5050748;28;20040;-67
2023/07/01 11:22:50;;;;;;;2.47;1.02;;;20.10;99.90;;;;;;5051098;28;20082;-67
2023/07/01 11:25:16;;;;;;;3.78;1.42;;;20.10;99.90;;;;;;5032308;28;20579;-67
2023/07/01 11:27:43;;;;;;;1.33;0.82;;;20.00;99.90;;;;;;5068163;28;20074;-67
2023/07/01 11:30:24;;;;;;;2.22;0.73;;;19.80;99.90;;;;;;5070901;28;20119;-68
2023/07/01 11:32:52;;;;;;;5.03;1.20;;;19.60;99.90;;;;;;5070195;28;20037;-68
2023/07/01 11:35:18;;;;;;;3.45;0.90;;;19.50;99.90;;;;;;5070761;28;20044;-68
2023/07/01 11:37:45;;;;;;;2.45;1.20;;;19.50;99.90;;;;;;5070308;28;20063;-68
2023/07/01 11:40:11;;;;;;;1.88;1.00;;;19.50;99.90;;;;;;5070894;28;20045;-68
2023/07/01 11:42:37;;;;;;;2.20;1.08;;;19.30;99.90;;;;;;5071581;28;20038;-68
2023/07/01 11:45:06;;;;;;;5.22;1.27;;;19.30;99.90;;;;;;5056192;28;20040;-68
2023/07/01 11:47:32;;;;;;;1.50;0.88;;;19.30;99.90;;;;;;5070777;28;20058;-68
2023/07/01 11:50:04;;;;;;;3.58;1.60;;;19.50;99.90;;;;;;5072216;28;20044;-68
2023/07/01 11:52:30;;;;;;;3.55;1.77;;;19.60;99.90;;;;;;5070330;28;20072;-68
2023/07/01 11:54:56;;;;;;;3.60;1.55;;;19.70;99.90;;;;;;5054162;28;20141;-68
2023/07/01 11:57:23;;;;;;;4.15;1.98;;;19.80;99.90;;;;;;5071836;28;20479;-67
2023/07/01 12:00:00;;;;;;;3.97;1.67;;;20.00;99.90;;;;;;5081938;28;20035;-67
2023/07/01 12:02:33;;;;;;;3.60;1.30;;;20.00;99.90;;;;;;5092477;28;20122;-68
2023/07/01 12:05:00;;;;;;;2.28;1.25;;;19.80;99.90;;;;;;5091206;28;20535;-67
2023/07/01 12:07:26;;;;;;;1.75;0.90;;;19.70;99.90;;;;;;5090645;28;20065;-67
2023/07/01 12:09:52;;;;;;;1.65;0.88;;;19.50;99.90;;;;;;5092335;28;20052;-67
2023/07/01 12:12:38;;;;;;;3.75;0.80;;;19.30;99.90;;;;;;5091160;28;20039;-67
2023/07/01 12:15:07;;;;;;;2.00;1.23;;;19.30;99.90;;;;;;5090738;28;20048;-67
2023/07/01 12:18:10;;;;;;;1.38;0.70;;;19.30;99.90;;;;;;5091072;28;20393;-67
2023/07/01 12:20:36;;;;;;;1.35;0.75;;;19.20;99.90;;;;;;5050367;28;20128;-67
2023/07/01 12:23:02;;;;;;;2.97;0.90;;;19.10;99.90;;;;;;5050615;28;20578;-67
2023/07/01 12:25:29;;;;;;;2.05;0.70;;;19.00;99.90;;;;;;5034048;28;20041;-67
2023/07/01 12:27:54;;;;;;;2.05;1.10;;;18.80;99.90;;;;;;5049941;28;20037;-67
2023/07/01 12:30:20;;;;;;;3.00;1.05;;;18.80;99.90;;;;;;5050373;28;20128;-67
2023/07/01 12:32:48;;;;;;;2.03;0.95;;;18.80;99.90;;;;;;5051765;28;20033;-67
2023/07/01 12:35:17;;;;;;;4.18;1.60;;;18.80;99.90;;;;;;5048899;28;20095;-68
2023/07/01 12:37:44;;;;;;;4.57;1.17;;;18.90;99.90;;;;;;5052509;28;20041;-67
2023/07/01 12:40:11;;;;;;;2.35;1.05;;;19.00;99.90;;;;;;5070225;28;20047;-67
2023/07/01 12:42:37;;;;;;;5.05;1.85;;;19.10;99.90;;;;;;5069882;28;20059;-67
2023/07/01 12:45:06;;;;;;;3.13;1.35;;;19.20;99.90;;;;;;5066819;28;20036;-67
2023/07/01 12:47:32;;;;;;;1.35;0.75;;;19.20;99.90;;;;;;5052196;28;20107;-67
2023/07/01 12:49:58;;;;;;;2.63;0.75;;;19.20;99.90;;;;;;5070651;28;20033;-67
2023/07/01 12:52:24;;;;;;;5.15;1.08;;;19.20;99.90;;;;;;5053091;28;20044;-67